createdAt,value
2023-03-20T00:03:02.215Z,84.91
2023-03-20T00:08:02.146Z,85.57
2023-03-20T00:13:02.023Z,85.91
2023-03-20T00:18:01.959Z,86.05
2023-03-20T00:23:01.896Z,86.67
2023-03-20T00:28:01.873Z,86.02
2023-03-20T00:33:01.822Z,85.44
2023-03-20T00:38:01.760Z,85.20
2023-03-20T00:43:01.652Z,85.96
2023-03-20T00:48:01.635Z,85.24
2023-03-20T00:53:01.558Z,84.05
2023-03-20T00:58:01.651Z,84.70
2023-03-20T01:03:11.452Z,84.19
2023-03-20T01:08:01.483Z,83.74
2023-03-20T01:13:03.457Z,84.15
2023-03-20T01:18:01.400Z,83.74
2023-03-20T01:23:01.393Z,83.64
2023-03-20T01:28:03.284Z,83.64
2023-03-20T01:33:02.218Z,84.19
2023-03-20T01:38:02.275Z,82.96
2023-03-20T01:43:01.034Z,82.76
2023-03-20T01:48:00.959Z,83.06
2023-03-20T01:53:00.904Z,82.49
2023-03-20T01:58:00.854Z,82.18
2023-03-20T02:03:00.823Z,82.86
2023-03-20T02:08:00.741Z,82.04
2023-03-20T02:13:00.683Z,81.52
2023-03-20T02:18:00.668Z,81.57
2023-03-20T02:23:00.576Z,82.01
2023-03-20T02:28:00.620Z,82.28
2023-03-20T02:33:00.609Z,81.98
2023-03-20T02:38:00.632Z,82.59
2023-03-20T02:43:00.563Z,82.60
2023-03-20T02:48:00.486Z,81.95
2023-03-20T02:53:00.368Z,81.95
2023-03-20T02:58:00.400Z,82.15
2023-03-20T03:03:00.406Z,83.07
2023-03-20T03:08:00.278Z,83.39
2023-03-20T03:13:00.208Z,83.49
2023-03-20T03:17:59.971Z,83.49
2023-03-20T03:22:59.930Z,83.14
2023-03-20T03:27:59.863Z,83.45
2023-03-20T03:32:59.850Z,83.65
2023-03-20T03:37:59.805Z,83.45
2023-03-20T03:42:59.709Z,82.67
2023-03-20T03:47:59.673Z,82.97
2023-03-20T03:52:59.647Z,83.07
2023-03-20T03:58:00.673Z,82.15
2023-03-20T04:02:59.582Z,82.29
2023-03-20T04:07:59.647Z,82.29
2023-03-20T04:13:00.504Z,83.01
2023-03-20T04:17:59.533Z,83.18
2023-03-20T04:22:59.457Z,83.39
2023-03-20T04:28:07.889Z,83.18
2023-03-20T04:32:59.201Z,83.07
2023-03-20T04:38:00.239Z,82.36
2023-03-20T04:42:59.078Z,83.01
2023-03-20T04:47:58.999Z,82.60
2023-03-20T04:52:58.949Z,83.01
2023-03-20T04:57:58.908Z,82.60
2023-03-20T05:02:58.874Z,82.91
2023-03-20T05:07:58.807Z,83.36
2023-03-20T05:12:58.730Z,83.15
2023-03-20T05:17:58.638Z,83.50
2023-03-20T05:22:58.596Z,83.61
2023-03-20T05:27:58.555Z,83.50
2023-03-20T05:32:58.641Z,83.40
2023-03-20T05:37:58.558Z,83.50
2023-03-20T05:42:58.472Z,83.19
2023-03-20T05:47:58.417Z,83.91
2023-03-20T05:52:58.318Z,83.81
2023-03-20T05:57:58.357Z,83.70
2023-03-20T06:02:58.266Z,84.01
2023-03-20T06:07:58.135Z,84.53
2023-03-20T06:12:58.122Z,84.22
2023-03-20T06:17:58.207Z,83.56
2023-03-20T06:22:57.955Z,82.95
2023-03-20T06:27:57.923Z,83.26
2023-03-20T06:32:58.057Z,82.95
2023-03-20T06:37:57.916Z,81.92
2023-03-20T06:42:58.810Z,82.81
2023-03-20T06:47:58.743Z,82.95
2023-03-20T06:52:57.610Z,81.99
2023-03-20T06:57:57.718Z,82.56
2023-03-20T07:02:57.547Z,81.74
2023-03-20T07:07:57.460Z,81.85
2023-03-20T07:12:57.408Z,82.77
2023-03-20T07:17:57.449Z,82.01
2023-03-20T07:22:57.318Z,80.13
2023-03-20T07:27:57.247Z,80.64
2023-03-20T07:32:57.263Z,78.90
2023-03-20T07:37:58.338Z,79.58
2023-03-20T07:42:57.068Z,77.70
2023-03-20T07:47:57.136Z,76.17
2023-03-20T07:52:56.960Z,75.89
2023-03-20T07:57:56.933Z,74.90
2023-03-20T08:02:57.051Z,75.82
2023-03-20T08:07:56.822Z,73.98
2023-03-20T08:12:56.772Z,76.37
2023-03-20T08:17:56.745Z,73.47
2023-03-20T08:22:56.674Z,71.53
2023-03-20T08:27:56.609Z,71.36
2023-03-20T08:32:56.597Z,71.97
2023-03-20T08:37:56.482Z,72.79
2023-03-20T08:42:56.425Z,72.04
2023-03-20T08:47:56.405Z,71.09
2023-03-20T08:52:56.535Z,71.29
2023-03-20T08:57:56.313Z,69.11
2023-03-20T09:02:56.300Z,70.44
2023-03-20T09:07:56.157Z,69.82
2023-03-20T09:12:56.137Z,68.43
2023-03-20T09:17:56.043Z,67.07
2023-03-20T09:22:56.012Z,66.66
2023-03-20T09:27:55.979Z,67.10
2023-03-20T09:32:55.948Z,66.15
2023-03-20T09:37:55.843Z,66.15
2023-03-20T09:42:55.797Z,67.58
2023-03-20T09:47:55.731Z,65.57
2023-03-20T09:52:55.683Z,64.75
2023-03-20T09:57:55.603Z,64.34
2023-03-20T10:02:55.596Z,64.75
2023-03-20T10:07:55.565Z,64.04
2023-03-20T10:12:55.489Z,65.23
2023-03-20T10:17:55.423Z,65.61
2023-03-20T10:22:55.397Z,64.25
2023-03-20T10:27:55.292Z,65.22
2023-03-20T10:32:55.285Z,62.42
2023-03-20T10:37:55.185Z,61.91
2023-03-20T10:42:55.129Z,60.35
2023-03-20T10:47:55.201Z,61.21
2023-03-20T10:52:55.056Z,59.12
2023-03-20T10:57:55.009Z,59.33
2023-03-20T11:02:54.932Z,58.97
2023-03-20T11:07:54.959Z,58.28
2023-03-20T11:12:54.867Z,59.66
2023-03-20T11:17:54.855Z,59.28
2023-03-20T11:22:54.710Z,57.70
2023-03-20T11:27:54.727Z,58.69
2023-03-20T11:32:54.619Z,57.50
2023-03-20T11:37:54.554Z,59.10
2023-03-20T11:42:54.557Z,59.58
2023-03-20T11:47:54.446Z,58.28
2023-03-20T11:52:54.371Z,61.09
2023-03-20T11:57:54.348Z,60.05
2023-03-20T12:02:54.359Z,60.53
2023-03-20T12:07:55.257Z,60.19
2023-03-20T12:12:54.203Z,60.60
2023-03-20T12:17:54.154Z,62.30
2023-03-20T12:22:54.057Z,63.07
2023-03-20T12:27:54.107Z,62.66
2023-03-20T12:32:53.982Z,65.17
2023-03-20T12:37:53.994Z,64.56
2023-03-20T12:42:53.936Z,67.04
2023-03-20T12:47:53.848Z,64.97
2023-03-20T12:52:53.830Z,67.61
2023-03-20T12:57:53.769Z,70.17
2023-03-20T13:02:53.683Z,68.36
2023-03-20T13:07:53.563Z,67.85
2023-03-20T13:12:53.526Z,67.18
2023-03-20T13:17:53.476Z,65.51
2023-03-20T13:22:53.390Z,64.01
2023-03-20T13:27:53.318Z,64.62
2023-03-20T13:32:53.318Z,65.34
2023-03-20T13:37:53.228Z,66.60
2023-03-20T13:42:53.172Z,66.09
2023-03-20T13:47:53.172Z,69.18
2023-03-20T13:52:54.115Z,66.50
2023-03-20T13:57:53.008Z,65.74
2023-03-20T14:02:52.941Z,66.50
2023-03-20T14:07:52.913Z,64.59
2023-03-20T14:12:52.929Z,65.78
2023-03-20T14:17:56.291Z,66.02
2023-03-20T14:22:52.760Z,66.30
2023-03-20T14:27:52.782Z,65.89
2023-03-20T14:32:52.717Z,65.00
2023-03-20T14:37:52.560Z,65.61
2023-03-20T14:42:52.522Z,65.41
2023-03-20T14:47:52.471Z,66.88
2023-03-20T14:52:52.423Z,65.52
2023-03-20T14:57:56.969Z,68.37
2023-03-20T15:02:53.288Z,64.50
2023-03-20T15:07:52.222Z,66.67
2023-03-20T15:12:52.199Z,65.72
2023-03-20T15:17:52.134Z,65.01
2023-03-20T15:22:52.064Z,66.03
2023-03-20T15:27:52.050Z,67.08
2023-03-20T15:32:52.039Z,66.74
2023-03-20T15:37:51.938Z,67.18
2023-03-20T15:42:51.888Z,67.18
2023-03-20T15:47:51.782Z,68.51
2023-03-20T15:52:51.771Z,68.71
2023-03-20T15:57:51.677Z,71.50
2023-03-20T16:02:52.765Z,71.29
2023-03-20T16:07:51.612Z,70.27
2023-03-20T16:12:51.588Z,71.36
2023-03-20T16:17:51.457Z,71.97
2023-03-20T16:22:51.445Z,72.00
2023-03-20T16:27:51.372Z,74.05
2023-03-20T16:32:51.398Z,73.74
2023-03-20T16:37:51.270Z,76.19
2023-03-20T16:42:51.210Z,77.25
2023-03-20T16:47:51.180Z,78.07
2023-03-20T16:52:51.143Z,78.38
2023-03-20T16:57:51.089Z,77.80
2023-03-20T17:02:50.980Z,77.67
2023-03-20T17:07:50.956Z,79.27
2023-03-20T17:12:50.886Z,78.72
2023-03-20T17:17:50.841Z,79.64
2023-03-20T17:22:50.752Z,77.94
2023-03-20T17:27:59.541Z,77.90
2023-03-20T17:32:50.707Z,77.83
2023-03-20T17:37:50.640Z,78.34
2023-03-20T17:42:50.649Z,77.63
2023-03-20T17:47:50.487Z,76.81
2023-03-20T17:52:50.430Z,75.59
2023-03-20T17:57:50.382Z,76.20
2023-03-20T18:02:50.368Z,76.09
2023-03-20T18:07:50.289Z,75.48
2023-03-20T18:12:50.277Z,75.99
2023-03-20T18:17:50.161Z,75.07
2023-03-20T18:22:50.124Z,73.44
2023-03-20T18:27:50.050Z,73.98
2023-03-20T18:32:51.080Z,74.46
2023-03-20T18:37:49.972Z,73.94
2023-03-20T18:42:49.905Z,74.15
2023-03-20T18:47:49.865Z,73.10
2023-03-20T18:52:49.787Z,73.81
2023-03-20T18:57:49.772Z,74.02
2023-03-20T19:02:49.731Z,72.96
2023-03-20T19:07:49.678Z,72.69
2023-03-20T19:12:49.605Z,73.06
2023-03-20T19:17:49.608Z,73.47
2023-03-20T19:22:49.532Z,73.36
2023-03-20T19:27:49.520Z,72.45
2023-03-20T19:32:49.431Z,72.17
2023-03-20T19:37:49.313Z,72.38
2023-03-20T19:43:01.727Z,72.38
2023-03-20T19:47:50.219Z,73.36
2023-03-20T19:52:49.301Z,73.27
2023-03-20T19:57:49.149Z,74.59
2023-03-20T20:02:49.198Z,74.84
2023-03-20T20:08:16.951Z,74.32
2023-03-20T20:12:49.926Z,76.57
2023-03-20T20:17:49.033Z,75.14
2023-03-20T20:22:48.913Z,75.55
2023-03-20T20:27:48.796Z,76.37
2023-03-20T20:32:48.798Z,75.04
2023-03-20T20:38:30.810Z,74.43
2023-03-20T20:42:49.656Z,74.73
2023-03-20T20:47:48.617Z,74.84
2023-03-20T20:52:48.546Z,74.32
2023-03-20T20:57:48.468Z,75.04
2023-03-20T21:02:48.634Z,74.02
2023-03-20T21:07:48.365Z,75.14
2023-03-20T21:12:58.426Z,75.24
2023-03-20T21:17:59.907Z,75.14
2023-03-20T21:22:50.193Z,74.32
2023-03-20T21:27:48.248Z,72.99
2023-03-20T21:32:48.066Z,74.39
2023-03-20T21:42:48.971Z,73.50
2023-03-20T21:48:30.056Z,73.61
2023-03-20T21:58:36.753Z,73.47
2023-03-20T22:02:49.157Z,72.86
2023-03-20T22:08:39.059Z,72.14
2023-03-20T22:18:50.944Z,72.31
2023-03-20T22:23:30.950Z,72.21
2023-03-20T22:43:05.169Z,75.17
2023-03-20T22:47:48.273Z,73.84
2023-03-20T22:52:49.382Z,73.44
2023-03-20T22:58:04.046Z,74.66
2023-03-20T23:02:48.145Z,73.60
2023-03-20T23:07:47.123Z,74.25
2023-03-20T23:12:47.057Z,74.05
2023-03-20T23:17:47.030Z,73.81
2023-03-20T23:22:46.968Z,73.84
2023-03-20T23:27:46.824Z,73.74
2023-03-20T23:32:46.831Z,74.15
2023-03-20T23:37:46.786Z,73.03
2023-03-20T23:42:46.717Z,73.10
2023-03-20T23:47:46.734Z,72.89
2023-03-20T23:52:57.180Z,72.99
2023-03-20T23:57:47.501Z,71.67
